»·PEaware :: N136GH 74S-KVUO

N136GH :: 74S-KVUO

FLIGHT INFORMATION

Flight Status: Arrived
Operator: Privately registered:
United States
More flights under this callsign
Pilot: Gabor H. (24209)
Aircraft: BEECH AIRCRAFT BONANZA
(BE36)
More flights by this aircraft type
Origin: 74S Anacortes
United States
Destination: KVUO Pearson
United States
More flights between these airports :: More routes between these airports
Route: VPWIN VPTNB VPFOX VPWSC VPGMD CLS KLS
File this flight plan on PilotEdge
Remarks:
Altitude:
(Current/Filed)
3,500ft
Speed:
(Current/Filed)
170kts
Departed: 25-Mar-20 04:15 PM
Arrived: 25-Mar-20 05:20 PM
Distance/Time
Traveled:
173nm/1:05
Distance/Time
To Go:
Arrived

Flight Plot

Page will automatically refresh every two minutes.


Map Options




Map Legend


Flown Route
Filed Route
Departure Airport
Arrival Airport
Navaid (VOR, NDB)
Fix

Horizontal Profiles

Position Reports

Time Latitude Longitude Heading Altitude Ground
Speed
25-Mar-20 15:54 48.497447 -122.661672 287 247ft 0kts
25-Mar-20 15:55 48.497447 -122.661672 287 247ft 0kts
25-Mar-20 15:56 48.497447 -122.661672 287 247ft 0kts
25-Mar-20 15:57 48.497447 -122.661672 287 247ft 0kts
25-Mar-20 15:58 48.497447 -122.661672 287 247ft 0kts
25-Mar-20 15:59 48.497447 -122.661672 287 247ft 0kts
25-Mar-20 16:00 48.497447 -122.661672 287 247ft 0kts
25-Mar-20 16:01 48.497447 -122.661672 287 247ft 0kts
25-Mar-20 16:02 48.497447 -122.661672 287 247ft 0kts
25-Mar-20 16:03 48.497447 -122.661672 287 247ft 0kts
25-Mar-20 16:04 48.497447 -122.661672 287 247ft 0kts
25-Mar-20 16:05 48.497447 -122.661672 287 247ft 0kts
25-Mar-20 16:06 48.497447 -122.661672 287 247ft 0kts
25-Mar-20 16:07 48.497447 -122.661672 287 247ft 0kts
25-Mar-20 16:08 48.497447 -122.661672 287 247ft 0kts
25-Mar-20 16:09 48.497447 -122.661672 287 247ft 0kts
25-Mar-20 16:10 48.497447 -122.661672 287 247ft 0kts
25-Mar-20 16:11 48.497447 -122.661672 287 247ft 0kts
25-Mar-20 16:12 48.498283 -122.661701 290 248ft 4kts
25-Mar-20 16:13 48.501960 -122.659810 31 242ft 0kts
25-Mar-20 16:14 48.495387 -122.664247 206 322ft 85kts
25-Mar-20 16:15 48.465025 -122.666218 134 1017ft 141kts
25-Mar-20 16:16 48.439777 -122.609608 124 1185ft 181kts
25-Mar-20 16:17 48.409272 -122.547184 153 1160ft 186kts
25-Mar-20 16:18 48.360189 -122.523460 172 1164ft 186kts
25-Mar-20 16:19 48.308897 -122.518237 182 1164ft 185kts
25-Mar-20 16:20 48.257410 -122.518447 182 1163ft 184kts
25-Mar-20 16:21 48.206848 -122.518835 182 1177ft 186kts
25-Mar-20 16:22 48.155033 -122.519233 182 1168ft 185kts
25-Mar-20 16:23 48.103601 -122.519561 179 1161ft 185kts
25-Mar-20 16:24 48.052458 -122.515051 183 1166ft 185kts
25-Mar-20 16:25 48.000868 -122.516944 182 1165ft 185kts
25-Mar-20 16:26 47.949883 -122.518626 182 1374ft 175kts
25-Mar-20 16:27 47.901484 -122.520225 182 1757ft 172kts
25-Mar-20 16:28 47.853586 -122.521440 181 2155ft 171kts
25-Mar-20 16:29 47.805940 -122.521452 180 2491ft 174kts
25-Mar-20 16:30 47.755806 -122.521441 180 2500ft 183kts
25-Mar-20 16:31 47.704493 -122.521407 181 2505ft 185kts
25-Mar-20 16:32 47.653071 -122.521383 181 2509ft 185kts
25-Mar-20 16:33 47.601997 -122.523423 184 2509ft 185kts
25-Mar-20 16:34 47.550852 -122.527557 184 2509ft 185kts
25-Mar-20 16:35 47.499402 -122.531758 184 2509ft 185kts
25-Mar-20 16:36 47.447873 -122.535965 184 2509ft 186kts
25-Mar-20 16:37 47.395912 -122.540210 183 2512ft 187kts
25-Mar-20 16:38 47.343658 -122.544483 183 2519ft 189kts
25-Mar-20 16:39 47.292079 -122.548705 182 2518ft 189kts
25-Mar-20 16:40 47.247727 -122.583610 224 2519ft 188kts
25-Mar-20 16:41 47.211000 -122.638330 226 2518ft 188kts
25-Mar-20 16:42 47.174612 -122.693714 227 2519ft 187kts
25-Mar-20 16:43 47.139279 -122.747668 227 2518ft 184kts
25-Mar-20 16:44 47.103974 -122.801520 227 2550ft 179kts
25-Mar-20 16:45 47.071726 -122.850511 227 3130ft 159kts
25-Mar-20 16:46 47.041127 -122.896935 225 3519ft 163kts
25-Mar-20 16:47 46.997146 -122.921807 199 3514ft 175kts
25-Mar-20 16:48 46.950271 -122.942942 198 3513ft 177kts
25-Mar-20 16:49 46.903158 -122.963831 198 3515ft 177kts
25-Mar-20 16:50 46.856911 -122.984260 198 3517ft 178kts
25-Mar-20 16:51 46.809141 -123.005232 195 3512ft 180kts
25-Mar-20 16:52 46.758783 -122.997622 172 3511ft 183kts
25-Mar-20 16:53 46.708944 -122.986043 172 3509ft 185kts
25-Mar-20 16:54 46.658330 -122.972920 157 3492ft 187kts
25-Mar-20 16:55 46.614113 -122.933459 147 3483ft 187kts
25-Mar-20 16:56 46.570430 -122.892016 147 3481ft 187kts
25-Mar-20 16:57 46.520889 -122.880099 182 3489ft 184kts
25-Mar-20 16:58 46.469522 -122.882359 183 3500ft 184kts
25-Mar-20 16:59 46.418240 -122.885220 183 3512ft 185kts
25-Mar-20 17:00 46.366849 -122.888132 183 3517ft 185kts
25-Mar-20 17:01 46.315384 -122.891166 182 3517ft 185kts
25-Mar-20 17:02 46.263898 -122.893977 182 3518ft 185kts
25-Mar-20 17:03 46.211096 -122.896961 182 3178ft 196kts
25-Mar-20 17:04 46.156432 -122.899997 182 2678ft 193kts
25-Mar-20 17:05 46.106775 -122.890553 164 2513ft 168kts
25-Mar-20 17:06 46.063144 -122.872628 163 2515ft 160kts
25-Mar-20 17:07 46.020754 -122.854905 163 2518ft 158kts
25-Mar-20 17:08 45.978331 -122.837182 163 2393ft 162kts
25-Mar-20 17:09 45.934084 -122.818731 163 1802ft 167kts
25-Mar-20 17:10 45.891483 -122.801021 163 1497ft 157kts
25-Mar-20 17:11 45.849945 -122.783789 163 1499ft 154kts
25-Mar-20 17:12 45.808927 -122.766778 163 1499ft 153kts
25-Mar-20 17:13 45.767808 -122.749752 163 1499ft 153kts
25-Mar-20 17:14 45.727209 -122.732969 163 1499ft 153kts
25-Mar-20 17:15 45.685752 -122.715186 153 1003ft 151kts
25-Mar-20 17:16 45.656842 -122.690002 151 955ft 85kts
25-Mar-20 17:17 45.634118 -122.683748 182 600ft 81kts
25-Mar-20 17:18 45.621140 -122.663004 97 68ft 81kts
25-Mar-20 17:19 45.620196 -122.651626 3 25ft 6kts
25-Mar-20 17:20 45.621426 -122.654933 351 26ft 10kts
25-Mar-20 17:21 45.621540 -122.655091 183 26ft 0kts
25-Mar-20 17:22 45.621540 -122.655091 183 26ft 0kts
25-Mar-20 17:23 45.621540 -122.655091 183 26ft 0kts
25-Mar-20 17:24 45.621540 -122.655091 183 26ft 0kts
25-Mar-20 17:25 45.621540 -122.655091 183 26ft 0kts
25-Mar-20 17:26 45.621540 -122.655091 183 26ft 0kts
25-Mar-20 17:27 45.621540 -122.655091 183 26ft 0kts
25-Mar-20 17:28 45.621540 -122.655091 183 26ft 0kts
25-Mar-20 17:29 45.621540 -122.655091 183 26ft 0kts
25-Mar-20 17:30 45.621540 -122.655091 183 26ft 0kts
25-Mar-20 17:31 45.621540 -122.655091 183 26ft 0kts
25-Mar-20 17:32 45.621540 -122.655091 183 26ft 0kts
25-Mar-20 17:33 45.621540 -122.655091 183 26ft 0kts

Navigation Log

Ident Type
Flight plan parsing failed, navigation log unavailable